sensor_id;sensor_type;location;lat;lon;timestamp;P1;durP1;ratioP1;P2;durP2;ratioP2
47896;SDS011;39629;51.400;5.494;2023-08-01T00:02:21;2.05;;;1.10;;
47896;SDS011;39629;51.400;5.494;2023-08-01T00:07:23;2.50;;;1.20;;
47896;SDS011;39629;51.400;5.494;2023-08-01T00:12:26;1.95;;;1.40;;
47896;SDS011;39629;51.400;5.494;2023-08-01T00:17:28;2.67;;;1.67;;
47896;SDS011;39629;51.400;5.494;2023-08-01T00:22:30;4.05;;;2.00;;
47896;SDS011;39629;51.400;5.494;2023-08-01T00:27:33;5.10;;;2.83;;
47896;SDS011;39629;51.400;5.494;2023-08-01T00:32:34;5.57;;;3.60;;
47896;SDS011;39629;51.400;5.494;2023-08-01T00:37:37;5.68;;;3.90;;
47896;SDS011;39629;51.400;5.494;2023-08-01T00:42:40;6.53;;;4.30;;
47896;SDS011;39629;51.400;5.494;2023-08-01T00:47:41;7.47;;;4.68;;
47896;SDS011;39629;51.400;5.494;2023-08-01T00:52:43;7.93;;;4.65;;
47896;SDS011;39629;51.400;5.494;2023-08-01T00:57:46;7.22;;;4.20;;
47896;SDS011;39629;51.400;5.494;2023-08-01T01:02:48;9.18;;;5.18;;
47896;SDS011;39629;51.400;5.494;2023-08-01T01:07:49;9.27;;;4.63;;
47896;SDS011;39629;51.400;5.494;2023-08-01T01:12:53;8.32;;;4.50;;
47896;SDS011;39629;51.400;5.494;2023-08-01T01:17:55;7.63;;;4.50;;
47896;SDS011;39629;51.400;5.494;2023-08-01T01:22:58;8.00;;;3.45;;
47896;SDS011;39629;51.400;5.494;2023-08-01T01:27:59;7.10;;;3.65;;
47896;SDS011;39629;51.400;5.494;2023-08-01T01:33:05;11.25;;;3.47;;
47896;SDS011;39629;51.400;5.494;2023-08-01T01:38:08;8.30;;;3.10;;
47896;SDS011;39629;51.400;5.494;2023-08-01T01:48:12;5.72;;;3.15;;
47896;SDS011;39629;51.400;5.494;2023-08-01T01:53:15;9.55;;;3.20;;
47896;SDS011;39629;51.400;5.494;2023-08-01T01:58:17;8.00;;;3.40;;
47896;SDS011;39629;51.400;5.494;2023-08-01T02:03:18;10.40;;;4.00;;
47896;SDS011;39629;51.400;5.494;2023-08-01T02:08:21;7.85;;;4.15;;
47896;SDS011;39629;51.400;5.494;2023-08-01T02:13:23;8.77;;;4.28;;
47896;SDS011;39629;51.400;5.494;2023-08-01T02:18:24;10.95;;;4.63;;
47896;SDS011;39629;51.400;5.494;2023-08-01T02:23:28;7.72;;;3.85;;
47896;SDS011;39629;51.400;5.494;2023-08-01T02:28:30;9.80;;;4.60;;
47896;SDS011;39629;51.400;5.494;2023-08-01T02:33:31;9.68;;;5.00;;
47896;SDS011;39629;51.400;5.494;2023-08-01T02:38:34;9.48;;;5.07;;
47896;SDS011;39629;51.400;5.494;2023-08-01T02:43:36;10.82;;;5.40;;
47896;SDS011;39629;51.400;5.494;2023-08-01T02:48:37;7.50;;;4.07;;
47896;SDS011;39629;51.400;5.494;2023-08-01T02:53:40;9.55;;;5.72;;
47896;SDS011;39629;51.400;5.494;2023-08-01T02:58:42;12.93;;;5.85;;
47896;SDS011;39629;51.400;5.494;2023-08-01T03:03:43;12.50;;;5.78;;
47896;SDS011;39629;51.400;5.494;2023-08-01T03:08:46;16.15;;;6.68;;
47896;SDS011;39629;51.400;5.494;2023-08-01T03:13:48;19.02;;;6.80;;
47896;SDS011;39629;51.400;5.494;2023-08-01T03:18:50;14.80;;;7.32;;
47896;SDS011;39629;51.400;5.494;2023-08-01T03:23:53;14.88;;;7.43;;
47896;SDS011;39629;51.400;5.494;2023-08-01T03:28:55;15.38;;;6.82;;
47896;SDS011;39629;51.400;5.494;2023-08-01T03:33:56;17.38;;;7.88;;
47896;SDS011;39629;51.400;5.494;2023-08-01T03:39:00;19.67;;;8.57;;
47896;SDS011;39629;51.400;5.494;2023-08-01T03:44:01;12.35;;;5.50;;
47896;SDS011;39629;51.400;5.494;2023-08-01T03:49:03;14.65;;;7.75;;
47896;SDS011;39629;51.400;5.494;2023-08-01T03:54:06;17.42;;;8.07;;
47896;SDS011;39629;51.400;5.494;2023-08-01T03:59:07;13.85;;;7.13;;
47896;SDS011;39629;51.400;5.494;2023-08-01T04:04:10;14.13;;;6.28;;
47896;SDS011;39629;51.400;5.494;2023-08-01T04:09:13;15.48;;;7.60;;
47896;SDS011;39629;51.400;5.494;2023-08-01T04:14:15;16.23;;;7.38;;
47896;SDS011;39629;51.400;5.494;2023-08-01T04:19:16;16.10;;;7.70;;
47896;SDS011;39629;51.400;5.494;2023-08-01T04:24:19;15.10;;;7.85;;
47896;SDS011;39629;51.400;5.494;2023-08-01T04:29:21;16.00;;;6.95;;
47896;SDS011;39629;51.400;5.494;2023-08-01T04:34:23;14.30;;;6.95;;
47896;SDS011;39629;51.400;5.494;2023-08-01T04:39:26;18.00;;;7.57;;
47896;SDS011;39629;51.400;5.494;2023-08-01T04:44:27;11.38;;;6.60;;
47896;SDS011;39629;51.400;5.494;2023-08-01T04:49:29;12.70;;;6.53;;
47896;SDS011;39629;51.400;5.494;2023-08-01T04:54:32;12.30;;;5.65;;
47896;SDS011;39629;51.400;5.494;2023-08-01T04:59:34;14.52;;;5.88;;
47896;SDS011;39629;51.400;5.494;2023-08-01T05:04:35;11.70;;;5.82;;
47896;SDS011;39629;51.400;5.494;2023-08-01T05:09:38;13.05;;;6.03;;
47896;SDS011;39629;51.400;5.494;2023-08-01T05:14:40;14.63;;;6.13;;
47896;SDS011;39629;51.400;5.494;2023-08-01T05:19:41;11.98;;;6.20;;
47896;SDS011;39629;51.400;5.494;2023-08-01T05:24:44;14.25;;;6.32;;
47896;SDS011;39629;51.400;5.494;2023-08-01T05:29:46;16.02;;;6.80;;
47896;SDS011;39629;51.400;5.494;2023-08-01T05:34:47;20.40;;;6.82;;
47896;SDS011;39629;51.400;5.494;2023-08-01T05:39:50;13.77;;;7.07;;
47896;SDS011;39629;51.400;5.494;2023-08-01T05:44:52;13.45;;;6.18;;
47896;SDS011;39629;51.400;5.494;2023-08-01T05:49:53;15.98;;;6.88;;
47896;SDS011;39629;51.400;5.494;2023-08-01T05:54:56;15.93;;;6.35;;
47896;SDS011;39629;51.400;5.494;2023-08-01T05:59:58;13.85;;;7.20;;
47896;SDS011;39629;51.400;5.494;2023-08-01T06:04:59;15.20;;;7.07;;
47896;SDS011;39629;51.400;5.494;2023-08-01T06:10:02;13.32;;;6.93;;
47896;SDS011;39629;51.400;5.494;2023-08-01T06:15:05;13.20;;;6.38;;
47896;SDS011;39629;51.400;5.494;2023-08-01T06:20:07;19.85;;;7.80;;
47896;SDS011;39629;51.400;5.494;2023-08-01T06:25:11;18.70;;;6.70;;
47896;SDS011;39629;51.400;5.494;2023-08-01T06:30:12;14.60;;;6.63;;
47896;SDS011;39629;51.400;5.494;2023-08-01T06:35:14;12.32;;;6.40;;
47896;SDS011;39629;51.400;5.494;2023-08-01T06:40:17;12.68;;;6.80;;
47896;SDS011;39629;51.400;5.494;2023-08-01T06:45:19;13.10;;;6.47;;
47896;SDS011;39629;51.400;5.494;2023-08-01T06:50:20;10.32;;;5.53;;
47896;SDS011;39629;51.400;5.494;2023-08-01T06:55:23;10.82;;;5.72;;
47896;SDS011;39629;51.400;5.494;2023-08-01T07:00:25;8.60;;;5.25;;
47896;SDS011;39629;51.400;5.494;2023-08-01T07:05:26;9.23;;;5.43;;
47896;SDS011;39629;51.400;5.494;2023-08-01T07:10:29;11.43;;;5.75;;
47896;SDS011;39629;51.400;5.494;2023-08-01T07:15:31;8.13;;;5.00;;
47896;SDS011;39629;51.400;5.494;2023-08-01T07:20:33;11.00;;;5.13;;
47896;SDS011;39629;51.400;5.494;2023-08-01T07:25:36;10.65;;;4.90;;
47896;SDS011;39629;51.400;5.494;2023-08-01T07:30:37;9.15;;;4.63;;
47896;SDS011;39629;51.400;5.494;2023-08-01T07:35:39;9.90;;;4.18;;
47896;SDS011;39629;51.400;5.494;2023-08-01T07:40:42;10.40;;;4.53;;
47896;SDS011;39629;51.400;5.494;2023-08-01T07:45:43;10.55;;;4.70;;
47896;SDS011;39629;51.400;5.494;2023-08-01T07:50:45;6.25;;;4.20;;
47896;SDS011;39629;51.400;5.494;2023-08-01T07:55:48;8.32;;;3.50;;
47896;SDS011;39629;51.400;5.494;2023-08-01T08:00:49;8.70;;;3.83;;
47896;SDS011;39629;51.400;5.494;2023-08-01T08:05:51;10.80;;;3.88;;
47896;SDS011;39629;51.400;5.494;2023-08-01T08:10:54;6.63;;;3.80;;
47896;SDS011;39629;51.400;5.494;2023-08-01T08:15:56;9.73;;;4.13;;
47896;SDS011;39629;51.400;5.494;2023-08-01T08:20:58;8.55;;;4.07;;
47896;SDS011;39629;51.400;5.494;2023-08-01T08:26:01;8.77;;;4.13;;
47896;SDS011;39629;51.400;5.494;2023-08-01T08:31:04;10.13;;;4.25;;
47896;SDS011;39629;51.400;5.494;2023-08-01T08:36:06;8.90;;;4.38;;
47896;SDS011;39629;51.400;5.494;2023-08-01T08:41:09;12.82;;;4.63;;
47896;SDS011;39629;51.400;5.494;2023-08-01T08:46:12;7.68;;;3.65;;
47896;SDS011;39629;51.400;5.494;2023-08-01T08:51:18;9.40;;;3.88;;
47896;SDS011;39629;51.400;5.494;2023-08-01T08:56:21;7.03;;;3.40;;
47896;SDS011;39629;51.400;5.494;2023-08-01T09:01:23;7.55;;;3.65;;
47896;SDS011;39629;51.400;5.494;2023-08-01T09:06:27;7.07;;;3.47;;
47896;SDS011;39629;51.400;5.494;2023-08-01T09:11:39;5.72;;;2.85;;
47896;SDS011;39629;51.400;5.494;2023-08-01T09:16:44;6.18;;;3.20;;
47896;SDS011;39629;51.400;5.494;2023-08-01T09:21:47;6.75;;;2.83;;
47896;SDS011;39629;51.400;5.494;2023-08-01T09:26:50;6.65;;;2.80;;
47896;SDS011;39629;51.400;5.494;2023-08-01T09:31:52;6.17;;;3.00;;
47896;SDS011;39629;51.400;5.494;2023-08-01T09:36:57;9.13;;;3.08;;
47896;SDS011;39629;51.400;5.494;2023-08-01T09:42:02;4.95;;;2.60;;
47896;SDS011;39629;51.400;5.494;2023-08-01T09:47:04;4.40;;;1.70;;
47896;SDS011;39629;51.400;5.494;2023-08-01T09:52:07;4.65;;;1.73;;
47896;SDS011;39629;51.400;5.494;2023-08-01T09:57:10;4.75;;;1.83;;
47896;SDS011;39629;51.400;5.494;2023-08-01T10:02:12;4.60;;;2.95;;
47896;SDS011;39629;51.400;5.494;2023-08-01T10:07:17;5.28;;;1.88;;
47896;SDS011;39629;51.400;5.494;2023-08-01T10:12:26;4.47;;;1.65;;
47896;SDS011;39629;51.400;5.494;2023-08-01T10:17:28;5.90;;;1.80;;
47896;SDS011;39629;51.400;5.494;2023-08-01T10:22:30;2.58;;;1.50;;
47896;SDS011;39629;51.400;5.494;2023-08-01T10:27:34;5.22;;;1.70;;
47896;SDS011;39629;51.400;5.494;2023-08-01T10:32:37;3.63;;;1.27;;
47896;SDS011;39629;51.400;5.494;2023-08-01T10:37:40;4.30;;;1.10;;
47896;SDS011;39629;51.400;5.494;2023-08-01T10:42:44;2.72;;;1.40;;
47896;SDS011;39629;51.400;5.494;2023-08-01T10:47:47;5.35;;;1.30;;
47896;SDS011;39629;51.400;5.494;2023-08-01T10:52:48;3.80;;;1.08;;
47896;SDS011;39629;51.400;5.494;2023-08-01T10:57:52;6.20;;;1.30;;
47896;SDS011;39629;51.400;5.494;2023-08-01T11:02:57;2.70;;;1.10;;
47896;SDS011;39629;51.400;5.494;2023-08-01T11:07:59;5.97;;;1.30;;
47896;SDS011;39629;51.400;5.494;2023-08-01T11:13:04;4.57;;;1.00;;
47896;SDS011;39629;51.400;5.494;2023-08-01T11:18:05;5.15;;;1.10;;
47896;SDS011;39629;51.400;5.494;2023-08-01T11:23:10;5.00;;;1.13;;
47896;SDS011;39629;51.400;5.494;2023-08-01T11:28:14;3.77;;;1.10;;
47896;SDS011;39629;51.400;5.494;2023-08-01T11:33:18;3.88;;;1.00;;
47896;SDS011;39629;51.400;5.494;2023-08-01T11:38:22;5.57;;;1.10;;
47896;SDS011;39629;51.400;5.494;2023-08-01T11:43:29;4.68;;;1.38;;
47896;SDS011;39629;51.400;5.494;2023-08-01T11:48:39;4.05;;;1.10;;
47896;SDS011;39629;51.400;5.494;2023-08-01T11:53:45;3.90;;;1.02;;
47896;SDS011;39629;51.400;5.494;2023-08-01T11:58:50;4.37;;;0.90;;
47896;SDS011;39629;51.400;5.494;2023-08-01T12:03:53;3.50;;;1.00;;
47896;SDS011;39629;51.400;5.494;2023-08-01T12:08:56;3.30;;;1.10;;
47896;SDS011;39629;51.400;5.494;2023-08-01T12:14:09;4.93;;;1.00;;
47896;SDS011;39629;51.400;5.494;2023-08-01T12:19:16;2.40;;;0.98;;
47896;SDS011;39629;51.400;5.494;2023-08-01T12:24:18;3.53;;;0.90;;
47896;SDS011;39629;51.400;5.494;2023-08-01T12:29:21;3.40;;;1.13;;
47896;SDS011;39629;51.400;5.494;2023-08-01T12:34:22;2.88;;;0.82;;
47896;SDS011;39629;51.400;5.494;2023-08-01T12:39:24;4.90;;;0.88;;
47896;SDS011;39629;51.400;5.494;2023-08-01T12:44:27;3.92;;;1.00;;
47896;SDS011;39629;51.400;5.494;2023-08-01T12:49:29;3.45;;;1.08;;
47896;SDS011;39629;51.400;5.494;2023-08-01T12:54:30;3.35;;;1.20;;
47896;SDS011;39629;51.400;5.494;2023-08-01T12:59:33;1.70;;;0.70;;
47896;SDS011;39629;51.400;5.494;2023-08-01T13:09:36;4.78;;;1.02;;
47896;SDS011;39629;51.400;5.494;2023-08-01T13:14:39;4.22;;;0.70;;
47896;SDS011;39629;51.400;5.494;2023-08-01T13:19:40;2.60;;;0.80;;
47896;SDS011;39629;51.400;5.494;2023-08-01T13:24:42;3.42;;;1.00;;
47896;SDS011;39629;51.400;5.494;2023-08-01T13:29:45;3.35;;;0.95;;
47896;SDS011;39629;51.400;5.494;2023-08-01T13:39:48;3.85;;;0.80;;
47896;SDS011;39629;51.400;5.494;2023-08-01T13:44:50;2.35;;;0.65;;
47896;SDS011;39629;51.400;5.494;2023-08-01T13:49:54;2.75;;;0.90;;
47896;SDS011;39629;51.400;5.494;2023-08-01T13:54:55;3.10;;;0.80;;
47896;SDS011;39629;51.400;5.494;2023-08-01T13:59:58;5.43;;;0.80;;
47896;SDS011;39629;51.400;5.494;2023-08-01T14:05:00;2.97;;;0.80;;
47896;SDS011;39629;51.400;5.494;2023-08-01T14:10:01;2.33;;;0.60;;
47896;SDS011;39629;51.400;5.494;2023-08-01T14:15:05;4.57;;;1.08;;
47896;SDS011;39629;51.400;5.494;2023-08-01T14:20:08;1.70;;;0.63;;
47896;SDS011;39629;51.400;5.494;2023-08-01T14:25:10;2.45;;;0.65;;
47896;SDS011;39629;51.400;5.494;2023-08-01T14:30:13;2.35;;;0.85;;
47896;SDS011;39629;51.400;5.494;2023-08-01T14:35:14;2.67;;;0.70;;
47896;SDS011;39629;51.400;5.494;2023-08-01T14:40:16;3.72;;;0.70;;
47896;SDS011;39629;51.400;5.494;2023-08-01T14:45:19;4.03;;;0.82;;
47896;SDS011;39629;51.400;5.494;2023-08-01T14:50:20;4.57;;;0.70;;
47896;SDS011;39629;51.400;5.494;2023-08-01T14:55:22;1.92;;;0.65;;
47896;SDS011;39629;51.400;5.494;2023-08-01T15:00:25;3.72;;;0.60;;
47896;SDS011;39629;51.400;5.494;2023-08-01T15:05:27;2.70;;;0.60;;
47896;SDS011;39629;51.400;5.494;2023-08-01T15:10:28;2.13;;;0.60;;
47896;SDS011;39629;51.400;5.494;2023-08-01T15:15:35;3.00;;;0.77;;
47896;SDS011;39629;51.400;5.494;2023-08-01T15:20:37;3.67;;;0.90;;
47896;SDS011;39629;51.400;5.494;2023-08-01T15:25:41;3.70;;;0.60;;
47896;SDS011;39629;51.400;5.494;2023-08-01T15:30:43;2.70;;;0.70;;
47896;SDS011;39629;51.400;5.494;2023-08-01T15:35:45;2.40;;;0.65;;
47896;SDS011;39629;51.400;5.494;2023-08-01T15:40:47;1.40;;;0.70;;
47896;SDS011;39629;51.400;5.494;2023-08-01T15:45:52;1.63;;;0.60;;
47896;SDS011;39629;51.400;5.494;2023-08-01T15:55:56;2.40;;;0.80;;
47896;SDS011;39629;51.400;5.494;2023-08-01T16:00:59;1.83;;;0.70;;
47896;SDS011;39629;51.400;5.494;2023-08-01T16:06:01;8.20;;;0.90;;
47896;SDS011;39629;51.400;5.494;2023-08-01T16:11:03;3.72;;;1.25;;
47896;SDS011;39629;51.400;5.494;2023-08-01T16:16:06;3.72;;;0.80;;
47896;SDS011;39629;51.400;5.494;2023-08-01T16:21:08;2.47;;;0.73;;
47896;SDS011;39629;51.400;5.494;2023-08-01T16:26:10;2.05;;;0.80;;
47896;SDS011;39629;51.400;5.494;2023-08-01T16:31:13;2.25;;;0.80;;
47896;SDS011;39629;51.400;5.494;2023-08-01T16:36:14;4.88;;;0.85;;
47896;SDS011;39629;51.400;5.494;2023-08-01T16:41:16;4.20;;;0.90;;
47896;SDS011;39629;51.400;5.494;2023-08-01T16:46:22;4.40;;;0.93;;
47896;SDS011;39629;51.400;5.494;2023-08-01T16:51:24;5.90;;;0.90;;
47896;SDS011;39629;51.400;5.494;2023-08-01T16:56:25;5.63;;;0.82;;
47896;SDS011;39629;51.400;5.494;2023-08-01T17:01:28;2.70;;;1.10;;
47896;SDS011;39629;51.400;5.494;2023-08-01T17:06:30;4.85;;;0.75;;
47896;SDS011;39629;51.400;5.494;2023-08-01T17:11:32;4.07;;;0.90;;
47896;SDS011;39629;51.400;5.494;2023-08-01T17:16:34;2.03;;;0.90;;
47896;SDS011;39629;51.400;5.494;2023-08-01T17:21:36;3.22;;;0.90;;
47896;SDS011;39629;51.400;5.494;2023-08-01T17:26:38;2.70;;;0.77;;
47896;SDS011;39629;51.400;5.494;2023-08-01T17:31:41;4.03;;;0.70;;
47896;SDS011;39629;51.400;5.494;2023-08-01T17:36:43;3.27;;;0.90;;
47896;SDS011;39629;51.400;5.494;2023-08-01T17:41:44;5.13;;;1.10;;
47896;SDS011;39629;51.400;5.494;2023-08-01T17:46:47;2.30;;;0.80;;
47896;SDS011;39629;51.400;5.494;2023-08-01T17:51:49;2.90;;;0.95;;
47896;SDS011;39629;51.400;5.494;2023-08-01T17:56:51;2.13;;;0.57;;
47896;SDS011;39629;51.400;5.494;2023-08-01T18:01:53;2.42;;;0.80;;
47896;SDS011;39629;51.400;5.494;2023-08-01T18:06:55;2.47;;;0.80;;
47896;SDS011;39629;51.400;5.494;2023-08-01T18:11:57;2.65;;;0.82;;
47896;SDS011;39629;51.400;5.494;2023-08-01T18:17:00;2.42;;;0.70;;
47896;SDS011;39629;51.400;5.494;2023-08-01T18:22:01;4.20;;;0.80;;
47896;SDS011;39629;51.400;5.494;2023-08-01T18:27:04;4.57;;;0.90;;
47896;SDS011;39629;51.400;5.494;2023-08-01T18:32:07;4.85;;;0.80;;
47896;SDS011;39629;51.400;5.494;2023-08-01T18:37:09;3.70;;;1.00;;
47896;SDS011;39629;51.400;5.494;2023-08-01T18:42:11;2.50;;;0.73;;
47896;SDS011;39629;51.400;5.494;2023-08-01T18:47:13;3.17;;;0.88;;
47896;SDS011;39629;51.400;5.494;2023-08-01T18:52:15;4.57;;;0.90;;
47896;SDS011;39629;51.400;5.494;2023-08-01T18:57:17;4.00;;;1.00;;
47896;SDS011;39629;51.400;5.494;2023-08-01T19:02:19;4.07;;;0.90;;
47896;SDS011;39629;51.400;5.494;2023-08-01T19:07:22;5.38;;;1.10;;
47896;SDS011;39629;51.400;5.494;2023-08-01T19:12:24;4.32;;;1.10;;
47896;SDS011;39629;51.400;5.494;2023-08-01T19:17:27;3.92;;;1.02;;
47896;SDS011;39629;51.400;5.494;2023-08-01T19:22:28;2.33;;;0.90;;
47896;SDS011;39629;51.400;5.494;2023-08-01T19:27:30;1.92;;;0.82;;
47896;SDS011;39629;51.400;5.494;2023-08-01T19:32:33;3.33;;;0.88;;
47896;SDS011;39629;51.400;5.494;2023-08-01T19:37:35;4.30;;;1.00;;
47896;SDS011;39629;51.400;5.494;2023-08-01T19:42:36;2.90;;;0.93;;
47896;SDS011;39629;51.400;5.494;2023-08-01T19:47:39;2.30;;;0.88;;
47896;SDS011;39629;51.400;5.494;2023-08-01T19:52:41;3.58;;;0.82;;
47896;SDS011;39629;51.400;5.494;2023-08-01T19:57:42;6.07;;;1.15;;
47896;SDS011;39629;51.400;5.494;2023-08-01T20:02:45;5.30;;;1.15;;
47896;SDS011;39629;51.400;5.494;2023-08-01T20:07:47;4.97;;;1.48;;
47896;SDS011;39629;51.400;5.494;2023-08-01T20:12:50;5.07;;;1.33;;
47896;SDS011;39629;51.400;5.494;2023-08-01T20:17:53;5.20;;;1.33;;
47896;SDS011;39629;51.400;5.494;2023-08-01T20:22:55;3.67;;;0.90;;
47896;SDS011;39629;51.400;5.494;2023-08-01T20:27:56;5.32;;;1.30;;
47896;SDS011;39629;51.400;5.494;2023-08-01T20:32:59;4.38;;;1.10;;
47896;SDS011;39629;51.400;5.494;2023-08-01T20:38:01;6.38;;;1.25;;
47896;SDS011;39629;51.400;5.494;2023-08-01T20:43:03;3.00;;;1.00;;
47896;SDS011;39629;51.400;5.494;2023-08-01T20:48:06;5.55;;;1.17;;
47896;SDS011;39629;51.400;5.494;2023-08-01T20:53:08;6.63;;;1.40;;
47896;SDS011;39629;51.400;5.494;2023-08-01T20:58:10;3.92;;;1.50;;
47896;SDS011;39629;51.400;5.494;2023-08-01T21:03:13;4.13;;;1.55;;
47896;SDS011;39629;51.400;5.494;2023-08-01T21:08:14;5.75;;;1.10;;
47896;SDS011;39629;51.400;5.494;2023-08-01T21:13:16;3.90;;;1.40;;
47896;SDS011;39629;51.400;5.494;2023-08-01T21:18:19;6.28;;;1.52;;
47896;SDS011;39629;51.400;5.494;2023-08-01T21:23:20;6.32;;;1.58;;
47896;SDS011;39629;51.400;5.494;2023-08-01T21:28:22;6.63;;;1.70;;
47896;SDS011;39629;51.400;5.494;2023-08-01T21:33:25;11.00;;;1.92;;
47896;SDS011;39629;51.400;5.494;2023-08-01T21:38:27;5.28;;;2.25;;
47896;SDS011;39629;51.400;5.494;2023-08-01T21:43:28;7.55;;;1.90;;
47896;SDS011;39629;51.400;5.494;2023-08-01T21:48:31;8.55;;;2.10;;
47896;SDS011;39629;51.400;5.494;2023-08-01T21:53:34;7.43;;;1.50;;
47896;SDS011;39629;51.400;5.494;2023-08-01T21:58:35;5.22;;;1.50;;
47896;SDS011;39629;51.400;5.494;2023-08-01T22:03:38;5.75;;;1.60;;
47896;SDS011;39629;51.400;5.494;2023-08-01T22:08:40;4.05;;;1.55;;
47896;SDS011;39629;51.400;5.494;2023-08-01T22:13:41;2.88;;;1.40;;
47896;SDS011;39629;51.400;5.494;2023-08-01T22:18:44;6.05;;;1.58;;
47896;SDS011;39629;51.400;5.494;2023-08-01T22:23:46;4.07;;;1.30;;
47896;SDS011;39629;51.400;5.494;2023-08-01T22:28:47;3.78;;;1.50;;
47896;SDS011;39629;51.400;5.494;2023-08-01T22:33:50;5.72;;;1.60;;
47896;SDS011;39629;51.400;5.494;2023-08-01T22:38:52;5.10;;;1.65;;
47896;SDS011;39629;51.400;5.494;2023-08-01T22:43:56;5.32;;;1.70;;
47896;SDS011;39629;51.400;5.494;2023-08-01T22:48:59;4.93;;;1.50;;
47896;SDS011;39629;51.400;5.494;2023-08-01T22:54:01;3.92;;;1.50;;
47896;SDS011;39629;51.400;5.494;2023-08-01T22:59:02;5.70;;;1.30;;
47896;SDS011;39629;51.400;5.494;2023-08-01T23:04:05;2.63;;;1.02;;
47896;SDS011;39629;51.400;5.494;2023-08-01T23:09:07;5.05;;;1.25;;
47896;SDS011;39629;51.400;5.494;2023-08-01T23:14:08;3.67;;;1.10;;
47896;SDS011;39629;51.400;5.494;2023-08-01T23:19:11;3.03;;;1.10;;
47896;SDS011;39629;51.400;5.494;2023-08-01T23:24:13;5.38;;;1.42;;
47896;SDS011;39629;51.400;5.494;2023-08-01T23:29:14;4.80;;;1.25;;
47896;SDS011;39629;51.400;5.494;2023-08-01T23:34:17;2.75;;;0.98;;
47896;SDS011;39629;51.400;5.494;2023-08-01T23:39:19;5.47;;;1.20;;
47896;SDS011;39629;51.400;5.494;2023-08-01T23:44:20;2.45;;;1.00;;
47896;SDS011;39629;51.400;5.494;2023-08-01T23:49:23;4.10;;;1.20;;
47896;SDS011;39629;51.400;5.494;2023-08-01T23:54:25;3.25;;;1.10;;
47896;SDS011;39629;51.400;5.494;2023-08-01T23:59:27;2.97;;;0.98;;
